Time;durP1;ratioP1;P1;durP2;ratioP2;P2;SDS_P1;SDS_P2;PMS_P1;PMS_P2;Temp;Humidity;BMP_temperature;BMP_pressure;BME280_temperature;BME280_humidity;BME280_pressure;Samples;Min_cycle;Max_cycle;Signal;HPM_P1;HPM_P2
2023/03/18 00:01:02;;;;;;;84.90;41.30;;;;;;;-1.23;84.86;98215.25;108782;1254;72153;-78
2023/03/18 00:03:33;;;;;;;79.70;35.40;;;;;;;-1.26;86.09;98212.79;108982;1254;59390;-78
2023/03/18 00:06:03;;;;;;;77.20;36.00;;;;;;;-1.32;87.32;98207.86;108988;1254;60284;-79
2023/03/18 00:08:31;;;;;;;82.40;40.90;;;;;;;-1.36;86.43;98202.20;109037;1254;74285;-78
2023/03/18 00:10:58;;;;;;;72.70;35.20;;;;;;;-1.38;85.55;98197.69;108994;1254;70983;-78
2023/03/18 00:13:25;;;;;;;89.90;36.40;;;;;;;-1.38;82.80;98197.36;108960;1254;59354;-78
2023/03/18 00:15:51;;;;;;;87.70;35.70;;;;;;;-1.42;82.52;98198.27;108989;1254;59041;-79
2023/03/18 00:18:18;;;;;;;79.70;36.60;;;;;;;-1.46;83.49;98199.34;108988;1255;59612;-80
2023/03/18 00:20:44;;;;;;;77.40;35.40;;;;;;;-1.49;85.87;98198.02;109047;1254;73951;-79
2023/03/18 00:23:11;;;;;;;83.90;34.60;;;;;;;-1.52;86.49;98194.74;109053;1254;59132;-79
2023/03/18 00:25:38;;;;;;;75.00;34.10;;;;;;;-1.54;85.33;98193.30;108869;1254;71694;-78
2023/03/18 00:28:05;;;;;;;73.70;34.10;;;;;;;-1.54;85.48;98188.09;109031;1254;59510;-77
2023/03/18 00:30:33;;;;;;;84.90;36.60;;;;;;;-1.55;85.69;98190.26;108768;1254;60297;-77
2023/03/18 00:33:00;;;;;;;79.50;36.60;;;;;;;-1.58;86.09;98188.41;109030;1254;73390;-78
2023/03/18 00:35:27;;;;;;;76.90;34.60;;;;;;;-1.64;87.25;98184.70;109043;1257;59764;-78
2023/03/18 00:37:54;;;;;;;71.40;34.70;;;;;;;-1.67;87.04;98191.73;109017;1254;72724;-77
2023/03/18 00:40:26;;;;;;;76.40;33.00;;;;;;;-1.71;86.87;98191.63;108988;1254;59559;-77
2023/03/18 00:42:56;;;;;;;79.10;35.00;;;;;;;-1.73;84.71;98184.50;108919;1259;59592;-77
2023/03/18 00:45:23;;;;;;;85.50;35.40;;;;;;;-1.75;85.66;98188.14;109010;1258;72751;-78
2023/03/18 00:47:49;;;;;;;69.20;32.00;;;;;;;-1.75;86.66;98182.77;109016;1254;69864;-77
2023/03/18 00:50:16;;;;;;;61.70;31.90;;;;;;;-1.75;86.98;98183.44;109018;1254;59049;-79
2023/03/18 00:52:42;;;;;;;68.10;32.50;;;;;;;-1.73;87.13;98181.84;109025;1254;59732;-77
2023/03/18 00:55:09;;;;;;;69.90;30.80;;;;;;;-1.78;89.04;98180.27;109017;1254;60177;-77
2023/03/18 00:57:36;;;;;;;62.40;30.70;;;;;;;-1.82;88.84;98178.77;109015;1254;73725;-77
2023/03/18 01:00:05;;;;;;;64.90;31.20;;;;;;;-1.84;88.06;98177.50;109038;1254;59639;-78
2023/03/18 01:02:33;;;;;;;64.80;29.80;;;;;;;-1.87;88.83;98173.77;109013;1259;71607;-77
2023/03/18 01:04:59;;;;;;;66.70;29.40;;;;;;;-1.90;89.22;98172.27;109029;1254;59740;-78
2023/03/18 01:07:26;;;;;;;73.40;32.40;;;;;;;-1.91;89.83;98170.76;109003;1254;59699;-78
2023/03/18 01:09:53;;;;;;;68.00;30.50;;;;;;;-1.92;88.99;98166.59;109004;1254;59745;-77
2023/03/18 01:12:20;;;;;;;54.90;27.40;;;;;;;-1.93;88.66;98162.13;109028;1254;70535;-78
2023/03/18 01:14:46;;;;;;;59.50;25.50;;;;;;;-1.95;89.50;98161.67;108991;1254;59329;-77
2023/03/18 01:17:13;;;;;;;60.50;27.20;;;;;;;-1.97;89.13;98163.20;108993;1254;59739;-78
2023/03/18 01:19:39;;;;;;;55.20;26.40;;;;;;;-2.00;88.91;98161.89;109040;1254;59511;-79
2023/03/18 01:22:06;;;;;;;65.00;27.30;;;;;;;-2.02;88.41;98155.59;108887;1254;59280;-77
2023/03/18 01:24:33;;;;;;;56.00;25.30;;;;;;;-2.06;89.90;98149.60;109002;1254;70997;-78
2023/03/18 01:26:59;;;;;;;59.60;27.40;;;;;;;-2.12;90.91;98147.72;108891;1254;72729;-77
2023/03/18 01:29:26;;;;;;;51.30;27.80;;;;;;;-2.13;89.94;98147.65;109014;1254;58974;-78
2023/03/18 01:31:53;;;;;;;50.40;27.80;;;;;;;-2.11;88.83;98153.00;109006;1254;59718;-78
2023/03/18 01:34:20;;;;;;;57.20;27.00;;;;;;;-2.08;88.06;98151.21;109037;1254;74948;-77
2023/03/18 01:36:47;;;;;;;54.90;27.00;;;;;;;-2.08;91.05;98148.27;109015;1255;70877;-77
2023/03/18 01:39:14;;;;;;;52.70;25.20;;;;;;;-2.10;91.32;98154.64;108890;1254;59733;-77
2023/03/18 01:41:40;;;;;;;58.40;27.70;;;;;;;-2.09;90.00;98153.95;109025;1254;59674;-77
2023/03/18 01:44:19;;;;;;;53.90;26.00;;;;;;;-2.10;90.59;98150.14;109039;1254;59597;-78
2023/03/18 01:46:47;;;;;;;63.80;31.80;;;;;;;-2.12;91.25;98149.52;109215;1259;72724;-77
2023/03/18 01:49:28;;;;;;;66.10;30.80;;;;;;;-2.15;91.42;98150.55;109117;1254;163338;-77
2023/03/18 01:52:10;;;;;;;65.30;29.50;;;;;;;-2.14;89.15;98154.29;109009;1261;73162;-77
2023/03/18 01:54:39;;;;;;;60.50;26.60;;;;;;;-2.16;91.43;98155.16;108946;1254;59102;-77
2023/03/18 01:57:06;;;;;;;55.10;23.50;;;;;;;-2.19;91.06;98152.30;108994;1254;59556;-78
2023/03/18 01:59:33;;;;;;;60.80;27.10;;;;;;;-2.22;89.50;98156.81;109069;1254;59764;-77
2023/03/18 02:02:05;;;;;;;59.80;28.10;;;;;;;-2.27;91.36;98157.55;108886;1254;70322;-77
2023/03/18 02:04:37;;;;;;;58.50;27.20;;;;;;;-2.28;91.95;98158.17;108930;1254;73055;-78
2023/03/18 02:07:06;;;;;;;67.90;30.20;;;;;;;-2.28;92.51;98158.58;109128;1254;59098;-77
2023/03/18 02:09:33;;;;;;;67.90;34.10;;;;;;;-2.27;92.48;98156.86;109229;1254;60393;-77
2023/03/18 02:12:00;;;;;;;68.80;33.20;;;;;;;-2.29;94.09;98157.60;109230;1254;59181;-77
2023/03/18 02:14:26;;;;;;;70.50;30.10;;;;;;;-2.29;94.52;98160.81;109087;1254;72227;-78
2023/03/18 02:16:58;;;;;;;72.20;32.20;;;;;;;-2.29;94.48;98159.20;109082;1254;71142;-79
2023/03/18 02:19:32;;;;;;;69.30;33.00;;;;;;;-2.28;94.83;98159.07;109036;1254;59676;-78
2023/03/18 02:22:14;;;;;;;58.70;28.00;;;;;;;-2.32;94.96;98160.63;108851;1254;60187;-77
2023/03/18 02:24:51;;;;;;;54.70;29.00;;;;;;;-2.34;93.76;98160.53;109054;1254;74546;-78
2023/03/18 02:27:19;;;;;;;65.00;29.20;;;;;;;-2.38;94.97;98157.33;109023;1254;70895;-77
2023/03/18 02:29:46;;;;;;;51.90;22.90;;;;;;;-2.37;94.78;98158.11;109012;1254;72541;-77
2023/03/18 02:32:12;;;;;;;48.40;23.50;;;;;;;-2.35;93.92;98153.46;108876;1254;59072;-77
2023/03/18 02:34:39;;;;;;;45.80;21.90;;;;;;;-2.33;89.88;98153.14;108949;1254;59040;-77
2023/03/18 02:37:06;;;;;;;46.10;19.50;;;;;;;-2.32;87.91;98152.66;108856;1254;74528;-77
2023/03/18 02:39:34;;;;;;;49.60;21.30;;;;;;;-2.29;87.17;98152.37;109050;1254;72211;-78
2023/03/18 02:42:01;;;;;;;40.50;19.60;;;;;;;-2.25;86.63;98146.24;109178;1254;73789;-78
2023/03/18 02:44:27;;;;;;;47.10;23.10;;;;;;;-2.22;87.96;98147.05;109233;1254;59082;-78
2023/03/18 02:47:03;;;;;;;55.00;26.40;;;;;;;-2.22;91.14;98146.65;109132;1256;59768;-78
2023/03/18 02:49:29;;;;;;;45.80;21.80;;;;;;;-2.20;92.34;98144.29;109207;1254;74627;-77
2023/03/18 02:51:56;;;;;;;38.80;21.70;;;;;;;-2.19;89.52;98145.48;109336;1254;71234;-79
2023/03/18 02:54:25;;;;;;;46.10;23.70;;;;;;;-2.24;91.63;98145.88;109273;1254;73342;-77
2023/03/18 02:56:52;;;;;;;45.60;22.30;;;;;;;-2.25;90.15;98147.97;109105;1254;59147;-77
2023/03/18 02:59:18;;;;;;;48.70;23.40;;;;;;;-2.29;92.12;98150.23;109019;1254;59568;-77
2023/03/18 03:01:46;;;;;;;50.80;24.80;;;;;;;-2.33;94.24;98148.90;109015;1254;75118;-77
2023/03/18 03:04:13;;;;;;;54.50;25.60;;;;;;;-2.34;94.04;98143.46;109056;1254;71262;-77
2023/03/18 03:06:39;;;;;;;53.50;27.60;;;;;;;-2.37;93.83;98140.76;109054;1254;71680;-78
2023/03/18 03:09:06;;;;;;;51.20;24.90;;;;;;;-2.37;94.53;98141.33;109098;1254;59565;-77
2023/03/18 03:11:33;;;;;;;53.70;26.50;;;;;;;-2.40;94.36;98138.73;109135;1254;59317;-79
2023/03/18 03:13:59;;;;;;;63.10;29.20;;;;;;;-2.44;95.31;98139.96;109000;1253;75683;-77
2023/03/18 03:16:27;;;;;;;49.80;27.00;;;;;;;-2.46;94.99;98136.08;109141;1254;59021;-79
2023/03/18 03:18:53;;;;;;;59.30;26.90;;;;;;;-2.49;96.13;98137.59;108916;1254;71151;-77
2023/03/18 03:21:20;;;;;;;48.50;26.30;;;;;;;-2.52;96.82;98135.86;109018;1254;59384;-77
2023/03/18 03:23:47;;;;;;;46.90;24.40;;;;;;;-2.49;95.03;98139.14;109024;1254;59678;-77
2023/03/18 03:26:14;;;;;;;54.40;23.40;;;;;;;-2.49;91.79;98138.45;109016;1254;73418;-77
2023/03/18 03:28:41;;;;;;;54.50;24.10;;;;;;;-2.53;93.51;98135.66;109025;1254;71304;-79
2023/03/18 03:31:09;;;;;;;45.90;22.50;;;;;;;-2.54;92.85;98139.13;109026;1254;71353;-78
2023/03/18 03:33:40;;;;;;;42.60;19.80;;;;;;;-2.56;92.81;98143.55;109101;1254;59923;-79
2023/03/18 03:36:11;;;;;;;48.30;23.00;;;;;;;-2.56;93.47;98140.73;109347;1254;59054;-77
2023/03/18 03:38:38;;;;;;;40.30;19.20;;;;;;;-2.55;90.50;98137.36;109347;1255;74867;-77
2023/03/18 03:41:04;;;;;;;46.10;22.30;;;;;;;-2.57;93.78;98139.19;109183;1254;70963;-77
2023/03/18 03:43:32;;;;;;;39.70;21.60;;;;;;;-2.56;95.55;98136.86;109127;1253;71098;-79
2023/03/18 03:45:59;;;;;;;38.30;20.40;;;;;;;-2.54;95.27;98136.84;109094;1253;59543;-77
2023/03/18 03:48:26;;;;;;;40.40;21.20;;;;;;;-2.53;94.43;98136.19;109049;1254;60543;-78
2023/03/18 03:50:53;;;;;;;39.30;19.90;;;;;;;-2.57;96.12;98133.02;109023;1254;74465;-78
2023/03/18 03:53:19;;;;;;;36.90;18.60;;;;;;;-2.57;93.62;98135.83;109052;1254;59809;-77
2023/03/18 03:55:46;;;;;;;43.80;22.40;;;;;;;-2.60;93.14;98136.05;109049;1254;59262;-78
2023/03/18 03:58:12;;;;;;;41.60;21.00;;;;;;;-2.62;95.08;98137.99;108985;1254;59748;-78
2023/03/18 04:00:39;;;;;;;36.10;20.70;;;;;;;-2.62;94.90;98138.13;109063;1254;60192;-78
2023/03/18 04:03:06;;;;;;;43.10;19.60;;;;;;;-2.60;96.23;98138.34;109035;1254;59135;-77
2023/03/18 04:05:32;;;;;;;49.20;21.80;;;;;;;-2.59;96.42;98133.16;109027;1254;70775;-77
2023/03/18 04:07:59;;;;;;;41.00;21.40;;;;;;;-2.61;97.24;98134.26;109004;1254;59358;-77
2023/03/18 04:10:26;;;;;;;44.10;20.60;;;;;;;-2.61;96.68;98135.84;108988;1254;59704;-78
2023/03/18 04:12:53;;;;;;;55.50;26.00;;;;;;;-2.65;97.75;98134.42;109031;1254;61717;-77
2023/03/18 04:15:20;;;;;;;43.70;22.60;;;;;;;-2.67;97.43;98135.88;108886;1254;72678;-78
2023/03/18 04:17:48;;;;;;;46.00;24.70;;;;;;;-2.70;97.99;98138.27;109096;1254;70904;-78
2023/03/18 04:20:15;;;;;;;45.10;23.80;;;;;;;-2.71;97.86;98137.48;109029;1254;71582;-78
2023/03/18 04:22:43;;;;;;;51.40;24.50;;;;;;;-2.70;98.55;98135.13;109045;1254;59184;-79
2023/03/18 04:25:11;;;;;;;43.00;19.60;;;;;;;-2.68;94.99;98134.85;109029;1254;60154;-77
2023/03/18 04:27:37;;;;;;;53.40;27.20;;;;;;;-2.70;95.17;98134.71;109043;1254;73963;-78
2023/03/18 04:30:05;;;;;;;42.40;23.30;;;;;;;-2.71;97.04;98135.70;108879;1254;70890;-77
2023/03/18 04:32:32;;;;;;;44.70;22.30;;;;;;;-2.69;94.32;98136.20;109045;1254;72052;-78
2023/03/18 04:34:58;;;;;;;53.10;24.40;;;;;;;-2.70;94.02;98138.48;108998;1254;59681;-79
2023/03/18 04:37:28;;;;;;;44.90;23.60;;;;;;;-2.74;95.86;98140.96;108893;1254;60280;-78
2023/03/18 04:39:55;;;;;;;51.30;26.90;;;;;;;-2.80;97.83;98141.70;109086;1254;73425;-78
2023/03/18 04:42:21;;;;;;;52.60;27.40;;;;;;;-2.79;96.57;98141.54;109035;1254;70878;-78
2023/03/18 04:44:48;;;;;;;38.60;19.80;;;;;;;-2.80;96.82;98144.14;109021;1254;59753;-78
2023/03/18 04:47:14;;;;;;;41.50;22.40;;;;;;;-2.81;96.74;98143.67;109027;1254;59484;-78
2023/03/18 04:49:41;;;;;;;40.70;22.00;;;;;;;-2.81;98.11;98144.48;109047;1254;58994;-79
2023/03/18 04:52:07;;;;;;;43.10;22.70;;;;;;;-2.78;97.33;98145.27;109049;1254;58969;-77
2023/03/18 04:54:36;;;;;;;39.40;18.20;;;;;;;-2.74;94.93;98146.53;109039;1254;71355;-79
2023/03/18 04:57:04;;;;;;;48.30;21.90;;;;;;;-2.73;93.80;98149.42;109023;1254;70988;-77
2023/03/18 04:59:31;;;;;;;41.80;20.00;;;;;;;-2.74;96.31;98150.39;109023;1254;59608;-78
2023/03/18 05:01:58;;;;;;;42.40;18.40;;;;;;;-2.74;98.14;98153.27;109015;1254;59084;-78
2023/03/18 05:04:25;;;;;;;41.00;19.90;;;;;;;-2.76;98.16;98153.31;109031;1254;75452;-79
2023/03/18 05:06:52;;;;;;;40.90;22.50;;;;;;;-2.79;98.58;98153.78;109040;1254;71926;-77
2023/03/18 05:09:18;;;;;;;34.60;18.50;;;;;;;-2.77;97.92;98154.49;109024;1254;72548;-77
2023/03/18 05:11:44;;;;;;;32.20;16.00;;;;;;;-2.73;95.28;98154.98;109005;1254;58989;-79
2023/03/18 05:14:12;;;;;;;37.50;19.90;;;;;;;-2.73;95.78;98156.40;109059;1254;60168;-77
2023/03/18 05:16:39;;;;;;;37.50;18.00;;;;;;;-2.74;98.00;98154.85;109016;1254;74013;-77
2023/03/18 05:19:05;;;;;;;41.80;20.70;;;;;;;-2.69;97.55;98159.02;109014;1254;59745;-79
2023/03/18 05:21:31;;;;;;;34.10;19.70;;;;;;;-2.66;97.15;98158.45;109019;1254;59026;-77
2023/03/18 05:23:58;;;;;;;47.00;21.30;;;;;;;-2.68;98.35;98156.77;109023;1254;59073;-78
2023/03/18 05:26:25;;;;;;;47.60;20.00;;;;;;;-2.65;97.32;98164.47;109060;1254;58953;-79
2023/03/18 05:28:52;;;;;;;39.60;19.70;;;;;;;-2.60;95.09;98162.59;108888;1254;74675;-79
2023/03/18 05:31:19;;;;;;;38.60;19.60;;;;;;;-2.56;94.53;98163.32;109014;1254;71374;-79
2023/03/18 05:33:45;;;;;;;35.80;20.50;;;;;;;-2.51;93.96;98163.47;108844;1254;72749;-78
2023/03/18 05:36:13;;;;;;;41.20;21.40;;;;;;;-2.45;95.37;98164.17;109045;1254;59549;-78
2023/03/18 05:38:39;;;;;;;43.60;21.80;;;;;;;-2.40;93.95;98163.40;109052;1254;60657;-79
2023/03/18 05:41:07;;;;;;;43.50;21.30;;;;;;;-2.35;92.75;98163.67;109049;1254;59779;-79
2023/03/18 05:43:33;;;;;;;44.40;21.90;;;;;;;-2.29;92.74;98157.95;109051;1254;70952;-78
2023/03/18 05:45:59;;;;;;;47.00;22.00;;;;;;;-2.22;91.09;98160.45;109015;1254;59658;-77
2023/03/18 05:48:26;;;;;;;39.50;22.70;;;;;;;-2.14;91.93;98166.95;109056;1254;59077;-80
2023/03/18 05:50:53;;;;;;;46.90;24.80;;;;;;;-2.05;93.44;98162.06;109043;1254;60448;-77
2023/03/18 05:53:19;;;;;;;40.90;23.30;;;;;;;-1.93;93.83;98161.60;109007;1254;59328;-78
2023/03/18 05:55:47;;;;;;;46.60;21.00;;;;;;;-1.85;94.67;98159.60;109049;1254;71090;-77
2023/03/18 05:58:14;;;;;;;48.60;24.50;;;;;;;-1.78;92.67;98155.66;108977;1254;72241;-79
2023/03/18 06:00:42;;;;;;;40.00;21.50;;;;;;;-1.68;92.02;98158.04;109017;1254;59728;-78
2023/03/18 06:03:09;;;;;;;43.10;22.80;;;;;;;-1.57;91.16;98167.65;109028;1254;61263;-79
2023/03/18 06:05:35;;;;;;;44.60;21.70;;;;;;;-1.46;90.49;98170.18;109042;1254;74783;-78
2023/03/18 06:08:01;;;;;;;41.80;24.80;;;;;;;-1.43;92.33;98170.94;109041;1253;59535;-77
2023/03/18 06:10:28;;;;;;;48.90;25.70;;;;;;;-1.36;92.97;98172.84;108989;1253;59601;-79
2023/03/18 06:12:54;;;;;;;54.70;28.60;;;;;;;-1.26;93.02;98168.94;109070;1256;59088;-77
2023/03/18 06:15:21;;;;;;;53.30;27.50;;;;;;;-1.15;92.81;98166.77;109141;1253;59675;-79
2023/03/18 06:17:48;;;;;;;49.90;27.60;;;;;;;-1.03;93.24;98165.06;109110;1253;72784;-79
2023/03/18 06:20:14;;;;;;;50.00;26.50;;;;;;;-0.91;90.92;98167.05;109051;1254;59765;-77
2023/03/18 06:22:42;;;;;;;50.50;25.60;;;;;;;-0.83;91.06;98167.75;109055;1254;73038;-79
2023/03/18 06:25:09;;;;;;;54.50;28.40;;;;;;;-0.72;91.11;98166.13;109052;1254;59438;-78
2023/03/18 06:27:36;;;;;;;61.70;28.80;;;;;;;-0.59;91.33;98167.15;109065;1254;59639;-78
2023/03/18 06:30:03;;;;;;;84.70;38.40;;;;;;;-0.46;91.48;98167.59;109050;1254;74181;-78
2023/03/18 06:32:30;;;;;;;57.20;29.80;;;;;;;-0.30;91.17;98169.35;109042;1254;70672;-78
2023/03/18 06:34:56;;;;;;;47.60;24.30;;;;;;;-0.13;90.42;98172.52;109056;1254;73084;-79
2023/03/18 06:37:23;;;;;;;35.40;20.40;;;;;;;0.04;89.63;98172.05;109020;1254;59696;-79
2023/03/18 06:39:49;;;;;;;40.80;19.80;;;;;;;0.17;89.28;98171.40;109082;1254;59580;-78
2023/03/18 06:42:16;;;;;;;41.20;22.80;;;;;;;0.33;88.93;98177.30;109040;1254;59612;-78
2023/03/18 06:44:49;;;;;;;40.70;22.20;;;;;;;0.49;88.23;98180.20;109052;1254;59119;-77
2023/03/18 06:47:20;;;;;;;47.40;23.60;;;;;;;0.65;87.03;98184.96;108926;1254;72534;-78
2023/03/18 06:49:48;;;;;;;40.00;21.50;;;;;;;0.77;86.81;98177.07;109024;1254;59414;-78
2023/03/18 06:52:14;;;;;;;36.20;19.00;;;;;;;0.93;85.68;98183.67;109173;1253;60494;-79
2023/03/18 06:54:41;;;;;;;42.80;20.70;;;;;;;1.10;84.44;98184.52;109142;1253;74893;-78
2023/03/18 06:57:08;;;;;;;36.20;17.40;;;;;;;1.26;84.09;98183.06;109048;1254;71343;-78
2023/03/18 06:59:36;;;;;;;39.70;18.50;;;;;;;1.42;83.55;98190.09;109035;1254;72548;-78
2023/03/18 07:02:04;;;;;;;42.70;19.40;;;;;;;1.58;82.64;98188.54;109047;1254;59635;-78
2023/03/18 07:04:32;;;;;;;43.60;20.20;;;;;;;1.77;82.78;98188.21;109037;1254;58942;-78
2023/03/18 07:06:59;;;;;;;35.70;19.10;;;;;;;2.01;79.79;98194.95;109034;1254;74191;-79
2023/03/18 07:09:26;;;;;;;34.40;19.20;;;;;;;2.29;78.37;98191.73;109014;1254;70886;-80
2023/03/18 07:11:53;;;;;;;36.40;19.30;;;;;;;2.67;76.69;98191.13;109036;1254;70244;-78
2023/03/18 07:14:20;;;;;;;33.00;16.90;;;;;;;3.45;74.05;98192.92;109031;1255;59762;-78
2023/03/18 07:16:46;;;;;;;34.70;18.70;;;;;;;4.34;71.66;98193.68;108867;1254;59821;-79
2023/03/18 07:19:14;;;;;;;28.80;16.60;;;;;;;5.36;73.92;98188.86;109047;1254;73721;-80
2023/03/18 07:21:41;;;;;;;30.60;16.70;;;;;;;6.22;70.10;98188.52;108999;1254;70279;-80
2023/03/18 07:24:08;;;;;;;28.80;15.70;;;;;;;7.17;74.27;98183.83;109035;1254;71024;-78
2023/03/18 07:26:36;;;;;;;25.60;16.40;;;;;;;7.95;71.63;98184.88;109019;1254;59630;-78
2023/03/18 07:29:03;;;;;;;27.90;15.00;;;;;;;8.44;68.30;98191.10;109010;1254;59910;-78
2023/03/18 07:31:30;;;;;;;34.70;16.40;;;;;;;8.91;63.80;98187.56;108899;1254;74529;-80
2023/03/18 07:33:57;;;;;;;23.50;14.90;;;;;;;9.56;59.11;98187.02;109122;1254;71618;-76
2023/03/18 07:36:24;;;;;;;25.60;17.20;;;;;;;10.13;55.43;98188.48;109036;1254;71181;-77
2023/03/18 07:38:50;;;;;;;24.80;11.90;;;;;;;10.73;54.50;98193.64;108881;1254;59638;-79
2023/03/18 07:41:17;;;;;;;22.90;12.40;;;;;;;11.33;52.29;98197.60;109020;1254;59605;-78
2023/03/18 07:43:43;;;;;;;23.40;12.60;;;;;;;12.05;56.40;98194.57;109012;1254;59513;-79
2023/03/18 07:46:10;;;;;;;19.80;11.90;;;;;;;12.46;53.51;98198.64;109040;1254;69105;-77
2023/03/18 07:48:37;;;;;;;31.20;24.00;;;;;;;12.78;52.07;98202.48;108774;1255;72909;-77
2023/03/18 07:51:03;;;;;;;19.30;13.60;;;;;;;13.20;50.68;98203.17;108943;1256;59093;-79
2023/03/18 07:53:30;;;;;;;21.50;12.10;;;;;;;13.62;49.40;98201.19;108984;1256;58915;-77
2023/03/18 07:55:57;;;;;;;22.10;12.20;;;;;;;14.01;46.76;98193.99;109012;1254;73573;-79
2023/03/18 07:58:24;;;;;;;19.70;11.30;;;;;;;14.74;45.13;98193.05;108980;1254;70854;-79
2023/03/18 08:00:51;;;;;;;23.00;15.40;;;;;;;15.48;44.73;98200.41;109067;1254;70273;-79
2023/03/18 08:03:18;;;;;;;25.10;15.70;;;;;;;15.85;43.98;98198.90;109030;1254;59141;-80
2023/03/18 08:05:44;;;;;;;23.00;14.10;;;;;;;16.35;41.86;98199.08;109089;1254;58950;-77
2023/03/18 08:08:11;;;;;;;20.40;12.80;;;;;;;16.35;39.88;98197.51;109063;1254;59635;-78
2023/03/18 08:10:37;;;;;;;23.40;15.70;;;;;;;16.08;39.52;98195.95;108910;1254;70193;-79
2023/03/18 08:13:04;;;;;;;20.70;13.70;;;;;;;16.11;39.67;98199.09;109013;1255;59014;-80
2023/03/18 08:15:31;;;;;;;17.70;13.10;;;;;;;16.55;39.68;98199.94;109048;1254;59741;-78
2023/03/18 08:17:58;;;;;;;21.50;18.30;;;;;;;16.66;36.83;98200.08;109022;1254;59855;-79
2023/03/18 08:20:25;;;;;;;21.80;18.10;;;;;;;16.75;36.43;98201.05;109038;1254;74445;-80
2023/03/18 08:22:52;;;;;;;15.90;11.70;;;;;;;17.39;35.78;98201.22;109035;1254;70308;-78
2023/03/18 08:25:20;;;;;;;18.00;11.60;;;;;;;17.92;36.83;98201.02;109039;1254;72015;-77
2023/03/18 08:27:47;;;;;;;;;;;;;;;18.32;34.08;98198.56;109047;1254;60680;-80
2023/03/18 08:30:14;;;;;;;10.60;6.40;;;;;;;18.09;31.71;98195.47;109029;1254;61197;-78
2023/03/18 08:32:41;;;;;;;11.10;7.10;;;;;;;18.36;28.54;98190.23;109037;1255;74783;-78
2023/03/18 08:35:08;;;;;;;18.00;8.40;;;;;;;19.45;31.11;98192.10;109073;1254;71123;-78
2023/03/18 08:37:35;;;;;;;12.80;8.20;;;;;;;20.08;31.05;98197.01;108997;1254;73135;-81
2023/03/18 08:40:03;;;;;;;14.00;10.50;;;;;;;20.69;30.81;98196.90;109038;1254;59094;-81
2023/03/18 08:42:30;;;;;;;14.20;9.30;;;;;;;21.37;29.29;98198.92;108922;1254;59352;-79
2023/03/18 08:44:56;;;;;;;13.70;8.00;;;;;;;21.59;28.92;98199.27;109077;1254;59851;-81
2023/03/18 08:47:24;;;;;;;15.00;7.30;;;;;;;21.34;27.25;98199.51;109075;1254;59503;-79
2023/03/18 08:49:50;;;;;;;24.90;9.20;;;;;;;20.54;27.26;98196.77;109046;1254;71981;-79
2023/03/18 08:52:17;;;;;;;28.40;16.30;;;;;;;21.13;27.43;98197.64;109054;1253;59667;-79
2023/03/18 08:54:44;;;;;;;14.20;9.00;;;;;;;21.85;26.76;98202.00;109088;1254;60503;-79
2023/03/18 08:57:11;;;;;;;8.80;6.30;;;;;;;21.71;25.17;98199.00;108982;1253;73742;-79
2023/03/18 08:59:37;;;;;;;28.00;15.50;;;;;;;21.70;23.55;98197.64;109039;1254;71367;-79
2023/03/18 09:02:04;;;;;;;15.50;9.00;;;;;;;22.37;24.26;98196.26;109103;1254;59018;-80
2023/03/18 09:04:31;;;;;;;16.40;8.20;;;;;;;22.47;25.13;98195.03;109038;1254;59391;-81
2023/03/18 09:06:59;;;;;;;13.40;8.90;;;;;;;22.17;24.98;98191.90;109058;1254;60043;-81
2023/03/18 09:09:26;;;;;;;19.50;12.00;;;;;;;21.19;26.42;98189.55;109059;1254;74600;-79
2023/03/18 09:11:53;;;;;;;15.30;10.50;;;;;;;19.88;26.70;98183.82;109052;1254;71293;-79
2023/03/18 09:14:19;;;;;;;10.90;7.80;;;;;;;18.60;26.81;98178.83;109179;1253;72618;-79
2023/03/18 09:16:46;;;;;;;14.90;8.30;;;;;;;17.73;27.17;98182.08;109101;1253;59050;-81
2023/03/18 09:19:12;;;;;;;12.50;8.10;;;;;;;16.50;27.43;98180.52;109048;1254;59302;-78
2023/03/18 09:21:39;;;;;;;12.30;7.20;;;;;;;15.39;28.46;98175.94;109021;1254;59697;-78
2023/03/18 09:24:05;;;;;;;14.90;9.50;;;;;;;14.63;29.61;98172.45;109024;1254;59491;-78
2023/03/18 09:26:32;;;;;;;11.80;8.00;;;;;;;14.30;29.56;98174.11;109069;1254;59513;-79
2023/03/18 09:28:58;;;;;;;11.70;8.20;;;;;;;13.80;30.37;98173.88;109018;1254;59699;-79
2023/03/18 09:31:25;;;;;;;14.20;6.70;;;;;;;13.55;30.24;98175.28;108868;1258;59573;-80
2023/03/18 09:33:52;;;;;;;11.90;6.00;;;;;;;13.06;29.73;98175.83;109068;1254;73421;-79
2023/03/18 09:36:19;;;;;;;10.10;5.70;;;;;;;12.86;30.26;98173.52;109052;1254;70513;-78
2023/03/18 09:38:45;;;;;;;10.30;7.40;;;;;;;12.56;30.16;98171.86;108931;1254;71443;-80
2023/03/18 09:41:24;;;;;;;9.40;5.70;;;;;;;12.60;30.58;98171.27;109070;1254;58967;-78
2023/03/18 09:43:54;;;;;;;11.40;5.80;;;;;;;12.46;30.71;98170.70;109023;1254;61374;-77
2023/03/18 09:46:52;;;;;;;13.70;5.20;;;;;;;12.46;31.12;98170.17;109042;1254;73477;-79
2023/03/18 09:49:53;;;;;;;9.50;5.40;;;;;;;12.35;31.93;98168.21;109152;1253;71248;-79
2023/03/18 09:52:22;;;;;;;9.40;5.20;;;;;;;12.14;30.52;98160.60;109159;1253;71900;-79
2023/03/18 09:58:26;;;;;;;11.30;5.10;;;;;;;12.18;31.81;98152.67;108956;1254;60342;-79
2023/03/18 10:00:59;;;;;;;16.00;5.40;;;;;;;12.29;31.78;98154.42;108978;1254;74108;-78
2023/03/18 10:03:45;;;;;;;11.90;7.30;;;;;;;12.31;32.28;98150.98;108927;1253;71282;-80
2023/03/18 10:06:22;;;;;;;15.10;6.30;;;;;;;12.29;31.83;98149.52;109066;1254;72501;-77
2023/03/18 10:09:13;;;;;;;10.60;6.40;;;;;;;12.31;31.97;98139.73;108946;1254;59023;-82
2023/03/18 10:11:41;;;;;;;11.90;6.90;;;;;;;12.29;31.19;98139.52;108945;1254;61740;-79
2023/03/18 10:14:17;;;;;;;15.00;5.50;;;;;;;12.36;32.05;98140.42;109011;1254;75121;-79
2023/03/18 10:16:48;;;;;;;9.40;5.10;;;;;;;12.30;30.93;98141.48;108882;1254;69915;-78
2023/03/18 10:19:14;;;;;;;9.00;5.50;;;;;;;12.36;31.34;98139.12;109001;1254;72778;-77
2023/03/18 10:21:53;;;;;;;26.10;23.50;;;;;;;12.35;31.38;98138.91;108999;1254;60099;-79
2023/03/18 10:24:28;;;;;;;15.00;10.60;;;;;;;12.38;30.67;98134.10;109005;1254;60683;-80
2023/03/18 10:27:16;;;;;;;14.50;6.80;;;;;;;12.35;30.65;98128.53;108996;1254;73971;-77
2023/03/18 10:29:53;;;;;;;16.30;6.50;;;;;;;12.35;30.22;98125.49;109005;1253;70983;-79
2023/03/18 10:32:20;;;;;;;8.00;5.40;;;;;;;12.47;31.46;98124.44;109007;1254;70870;-79
2023/03/18 10:34:56;;;;;;;8.10;4.60;;;;;;;12.44;29.88;98124.04;108980;1254;59638;-79
2023/03/18 10:37:42;;;;;;;7.60;4.60;;;;;;;12.41;29.91;98115.65;109023;1254;60369;-80
2023/03/18 10:40:14;;;;;;;10.60;5.80;;;;;;;12.49;30.84;98117.42;109010;1254;72934;-78
2023/03/18 10:42:41;;;;;;;9.00;4.90;;;;;;;12.56;30.08;98118.35;108906;1254;70716;-80
2023/03/18 10:45:17;;;;;;;7.80;5.10;;;;;;;12.53;28.82;98118.94;108957;1254;71623;-77
2023/03/18 10:47:46;;;;;;;29.20;25.90;;;;;;;12.56;29.54;98118.14;108988;1254;59629;-78
2023/03/18 10:50:16;;;;;;;12.80;6.50;;;;;;;12.59;29.93;98113.98;109136;1254;59925;-78
2023/03/18 10:52:55;;;;;;;41.40;27.90;;;;;;;12.59;29.33;98114.80;109003;1253;74213;-78
2023/03/18 10:55:24;;;;;;;27.10;19.30;;;;;;;12.58;29.61;98113.23;109143;1254;70240;-77
2023/03/18 10:57:51;;;;;;;11.20;6.00;;;;;;;12.68;29.98;98107.98;109095;1253;72925;-80
2023/03/18 11:00:25;;;;;;;13.30;6.50;;;;;;;12.71;30.30;98106.42;109077;1254;59399;-78
2023/03/18 11:02:52;;;;;;;18.40;12.90;;;;;;;12.72;29.15;98106.90;109063;1254;60166;-78
2023/03/18 11:05:30;;;;;;;16.00;9.50;;;;;;;12.77;30.00;98103.85;108934;1255;59767;-80
2023/03/18 11:08:02;;;;;;;18.50;10.10;;;;;;;12.83;30.58;98099.86;108986;1254;70210;-78
2023/03/18 11:10:33;;;;;;;38.50;19.90;;;;;;;12.83;30.58;98094.91;109045;1254;72540;-78
2023/03/18 11:13:01;;;;;;;13.20;7.00;;;;;;;12.89;31.60;98093.35;108929;1255;59025;-80
2023/03/18 11:15:35;;;;;;;17.60;10.70;;;;;;;12.92;31.08;98092.08;109020;1254;61173;-79
2023/03/18 11:18:02;;;;;;;12.60;5.70;;;;;;;12.91;30.15;98094.36;108940;1254;73990;-80
2023/03/18 11:20:29;;;;;;;25.50;15.60;;;;;;;12.93;29.97;98095.33;109076;1254;69745;-79